sensor_id;sensor_type;location;lat;lon;timestamp;temperature;humidity
16523;DHT22;19889;52.546;13.348;2023-06-22T00:01:13;24.40;99.90
16523;DHT22;19889;52.546;13.348;2023-06-22T00:03:40;24.30;99.90
16523;DHT22;19889;52.546;13.348;2023-06-22T00:06:07;24.40;99.90
16523;DHT22;19889;52.546;13.348;2023-06-22T00:08:34;24.30;99.90
16523;DHT22;19889;52.546;13.348;2023-06-22T00:11:01;24.30;99.90
16523;DHT22;19889;52.546;13.348;2023-06-22T00:13:28;24.30;99.90
16523;DHT22;19889;52.546;13.348;2023-06-22T00:15:56;24.20;99.90
16523;DHT22;19889;52.546;13.348;2023-06-22T00:18:23;24.20;99.90
16523;DHT22;19889;52.546;13.348;2023-06-22T00:20:54;24.20;99.90
16523;DHT22;19889;52.546;13.348;2023-06-22T00:23:24;24.20;99.90
16523;DHT22;19889;52.546;13.348;2023-06-22T00:25:51;24.20;99.90
16523;DHT22;19889;52.546;13.348;2023-06-22T00:28:18;24.10;99.90
16523;DHT22;19889;52.546;13.348;2023-06-22T00:30:45;24.10;99.90
16523;DHT22;19889;52.546;13.348;2023-06-22T00:33:14;24.10;99.90
16523;DHT22;19889;52.546;13.348;2023-06-22T00:35:41;24.10;99.90
16523;DHT22;19889;52.546;13.348;2023-06-22T00:38:08;24.10;99.90
16523;DHT22;19889;52.546;13.348;2023-06-22T00:40:36;24.10;99.90
16523;DHT22;19889;52.546;13.348;2023-06-22T00:43:03;24.00;99.90
16523;DHT22;19889;52.546;13.348;2023-06-22T00:45:31;24.00;99.90
16523;DHT22;19889;52.546;13.348;2023-06-22T00:47:58;23.90;99.90
16523;DHT22;19889;52.546;13.348;2023-06-22T00:50:29;24.70;99.90
16523;DHT22;19889;52.546;13.348;2023-06-22T00:53:03;23.90;99.90
16523;DHT22;19889;52.546;13.348;2023-06-22T00:55:34;23.90;99.90
16523;DHT22;19889;52.546;13.348;2023-06-22T00:58:03;23.90;99.90
16523;DHT22;19889;52.546;13.348;2023-06-22T01:00:33;23.90;99.90
16523;DHT22;19889;52.546;13.348;2023-06-22T01:03:02;23.80;99.90
16523;DHT22;19889;52.546;13.348;2023-06-22T01:05:31;23.80;99.90
16523;DHT22;19889;52.546;13.348;2023-06-22T01:08:06;23.80;99.90
16523;DHT22;19889;52.546;13.348;2023-06-22T01:10:43;23.80;99.90
16523;DHT22;19889;52.546;13.348;2023-06-22T01:13:18;23.70;99.90
16523;DHT22;19889;52.546;13.348;2023-06-22T01:15:51;23.70;99.90
16523;DHT22;19889;52.546;13.348;2023-06-22T01:18:20;23.70;99.90
16523;DHT22;19889;52.546;13.348;2023-06-22T01:20:54;23.70;99.90
16523;DHT22;19889;52.546;13.348;2023-06-22T01:23:29;23.70;99.90
16523;DHT22;19889;52.546;13.348;2023-06-22T01:26:05;23.60;99.90
16523;DHT22;19889;52.546;13.348;2023-06-22T01:28:43;23.60;99.90
16523;DHT22;19889;52.546;13.348;2023-06-22T01:31:12;23.60;99.90
16523;DHT22;19889;52.546;13.348;2023-06-22T01:33:42;23.60;99.90
16523;DHT22;19889;52.546;13.348;2023-06-22T01:36:09;23.60;99.90
16523;DHT22;19889;52.546;13.348;2023-06-22T01:38:38;23.60;99.90
16523;DHT22;19889;52.546;13.348;2023-06-22T01:41:06;23.40;99.90
16523;DHT22;19889;52.546;13.348;2023-06-22T01:43:33;23.50;99.90
16523;DHT22;19889;52.546;13.348;2023-06-22T01:46:03;23.50;99.90
16523;DHT22;19889;52.546;13.348;2023-06-22T01:48:30;23.50;99.90
16523;DHT22;19889;52.546;13.348;2023-06-22T01:50:58;23.50;99.90
16523;DHT22;19889;52.546;13.348;2023-06-22T01:53:25;23.50;99.90
16523;DHT22;19889;52.546;13.348;2023-06-22T01:55:52;23.50;99.90
16523;DHT22;19889;52.546;13.348;2023-06-22T01:58:21;23.50;99.90
16523;DHT22;19889;52.546;13.348;2023-06-22T02:00:55;23.50;99.90
16523;DHT22;19889;52.546;13.348;2023-06-22T02:03:29;23.50;99.90
16523;DHT22;19889;52.546;13.348;2023-06-22T02:06:08;23.50;99.90
16523;DHT22;19889;52.546;13.348;2023-06-22T02:08:40;23.50;99.90
16523;DHT22;19889;52.546;13.348;2023-06-22T02:11:09;23.50;99.90
16523;DHT22;19889;52.546;13.348;2023-06-22T02:13:37;23.50;99.90
16523;DHT22;19889;52.546;13.348;2023-06-22T02:16:09;23.50;99.90
16523;DHT22;19889;52.546;13.348;2023-06-22T02:18:37;23.40;99.90
16523;DHT22;19889;52.546;13.348;2023-06-22T02:21:06;23.40;99.90
16523;DHT22;19889;52.546;13.348;2023-06-22T02:23:33;23.40;99.90
16523;DHT22;19889;52.546;13.348;2023-06-22T02:26:01;23.40;99.90
16523;DHT22;19889;52.546;13.348;2023-06-22T02:28:29;23.40;99.90
16523;DHT22;19889;52.546;13.348;2023-06-22T02:30:56;23.40;99.90
16523;DHT22;19889;52.546;13.348;2023-06-22T02:33:22;23.40;99.90
16523;DHT22;19889;52.546;13.348;2023-06-22T02:35:51;23.40;99.90
16523;DHT22;19889;52.546;13.348;2023-06-22T02:38:21;23.40;99.90
16523;DHT22;19889;52.546;13.348;2023-06-22T02:40:51;23.40;99.90
16523;DHT22;19889;52.546;13.348;2023-06-22T02:43:18;23.40;99.90
16523;DHT22;19889;52.546;13.348;2023-06-22T02:45:45;23.40;99.90
16523;DHT22;19889;52.546;13.348;2023-06-22T02:48:12;23.40;99.90
16523;DHT22;19889;52.546;13.348;2023-06-22T02:50:39;23.50;99.90
16523;DHT22;19889;52.546;13.348;2023-06-22T02:53:07;23.50;99.90
16523;DHT22;19889;52.546;13.348;2023-06-22T02:55:38;23.50;99.90
16523;DHT22;19889;52.546;13.348;2023-06-22T02:58:05;23.50;99.90
16523;DHT22;19889;52.546;13.348;2023-06-22T03:00:36;23.60;99.90
16523;DHT22;19889;52.546;13.348;2023-06-22T03:03:04;23.60;99.90
16523;DHT22;19889;52.546;13.348;2023-06-22T03:05:32;23.60;99.90
16523;DHT22;19889;52.546;13.348;2023-06-22T03:08:01;23.60;99.90
16523;DHT22;19889;52.546;13.348;2023-06-22T03:10:33;23.60;99.90
16523;DHT22;19889;52.546;13.348;2023-06-22T03:13:00;23.60;99.90
16523;DHT22;19889;52.546;13.348;2023-06-22T03:15:27;23.60;99.90
16523;DHT22;19889;52.546;13.348;2023-06-22T03:17:55;23.80;99.90
16523;DHT22;19889;52.546;13.348;2023-06-22T03:20:23;23.60;99.90
16523;DHT22;19889;52.546;13.348;2023-06-22T03:22:52;23.50;99.90
16523;DHT22;19889;52.546;13.348;2023-06-22T03:25:19;23.60;99.90
16523;DHT22;19889;52.546;13.348;2023-06-22T03:27:50;23.50;99.90
16523;DHT22;19889;52.546;13.348;2023-06-22T03:30:17;23.50;99.90
16523;DHT22;19889;52.546;13.348;2023-06-22T03:32:45;23.50;99.90
16523;DHT22;19889;52.546;13.348;2023-06-22T03:35:12;23.60;99.90
16523;DHT22;19889;52.546;13.348;2023-06-22T03:37:40;23.60;99.90
16523;DHT22;19889;52.546;13.348;2023-06-22T03:40:08;23.60;99.90
16523;DHT22;19889;52.546;13.348;2023-06-22T03:42:35;23.60;99.90
16523;DHT22;19889;52.546;13.348;2023-06-22T03:45:04;23.60;99.90
16523;DHT22;19889;52.546;13.348;2023-06-22T03:47:32;23.60;99.90
16523;DHT22;19889;52.546;13.348;2023-06-22T03:49:59;23.60;99.90
16523;DHT22;19889;52.546;13.348;2023-06-22T03:52:26;23.50;99.90
16523;DHT22;19889;52.546;13.348;2023-06-22T03:54:53;23.50;99.90
16523;DHT22;19889;52.546;13.348;2023-06-22T03:57:20;23.50;99.90
16523;DHT22;19889;52.546;13.348;2023-06-22T03:59:47;23.50;99.90
16523;DHT22;19889;52.546;13.348;2023-06-22T04:02:15;23.50;99.90
16523;DHT22;19889;52.546;13.348;2023-06-22T04:04:42;23.50;99.90
16523;DHT22;19889;52.546;13.348;2023-06-22T04:07:09;23.50;99.90
16523;DHT22;19889;52.546;13.348;2023-06-22T04:09:36;23.50;99.90
16523;DHT22;19889;52.546;13.348;2023-06-22T04:12:04;23.50;99.90
16523;DHT22;19889;52.546;13.348;2023-06-22T04:14:31;23.50;99.90
16523;DHT22;19889;52.546;13.348;2023-06-22T04:16:58;23.40;99.90
16523;DHT22;19889;52.546;13.348;2023-06-22T04:19:26;23.40;99.90
16523;DHT22;19889;52.546;13.348;2023-06-22T04:21:53;23.40;99.90
16523;DHT22;19889;52.546;13.348;2023-06-22T04:24:20;23.50;99.90
16523;DHT22;19889;52.546;13.348;2023-06-22T04:26:47;23.40;99.90
16523;DHT22;19889;52.546;13.348;2023-06-22T04:29:14;23.40;99.90
16523;DHT22;19889;52.546;13.348;2023-06-22T04:31:41;23.40;99.90
16523;DHT22;19889;52.546;13.348;2023-06-22T04:34:09;23.20;99.90
16523;DHT22;19889;52.546;13.348;2023-06-22T04:36:39;23.40;99.90
16523;DHT22;19889;52.546;13.348;2023-06-22T04:39:08;23.40;99.90
16523;DHT22;19889;52.546;13.348;2023-06-22T04:41:35;23.40;99.90
16523;DHT22;19889;52.546;13.348;2023-06-22T04:44:09;23.40;99.90
16523;DHT22;19889;52.546;13.348;2023-06-22T04:46:36;23.40;99.90
16523;DHT22;19889;52.546;13.348;2023-06-22T04:49:05;23.40;99.90
16523;DHT22;19889;52.546;13.348;2023-06-22T04:51:38;23.50;99.90
16523;DHT22;19889;52.546;13.348;2023-06-22T04:54:05;23.50;99.90
16523;DHT22;19889;52.546;13.348;2023-06-22T04:56:32;23.50;99.90
16523;DHT22;19889;52.546;13.348;2023-06-22T04:59:00;23.50;99.90
16523;DHT22;19889;52.546;13.348;2023-06-22T05:01:28;23.50;99.90
16523;DHT22;19889;52.546;13.348;2023-06-22T05:03:56;23.50;99.90
16523;DHT22;19889;52.546;13.348;2023-06-22T05:06:27;23.50;99.90
16523;DHT22;19889;52.546;13.348;2023-06-22T05:08:56;23.50;99.90
16523;DHT22;19889;52.546;13.348;2023-06-22T05:11:24;23.60;99.90
16523;DHT22;19889;52.546;13.348;2023-06-22T05:13:52;23.60;99.90
16523;DHT22;19889;52.546;13.348;2023-06-22T05:16:20;23.60;99.90
16523;DHT22;19889;52.546;13.348;2023-06-22T05:18:50;23.60;99.90
16523;DHT22;19889;52.546;13.348;2023-06-22T05:21:18;23.60;99.90
16523;DHT22;19889;52.546;13.348;2023-06-22T05:23:44;23.60;99.90
16523;DHT22;19889;52.546;13.348;2023-06-22T05:26:13;23.60;99.90
16523;DHT22;19889;52.546;13.348;2023-06-22T05:28:40;23.60;99.90
16523;DHT22;19889;52.546;13.348;2023-06-22T05:31:07;23.60;99.90
16523;DHT22;19889;52.546;13.348;2023-06-22T05:33:33;23.60;99.90
16523;DHT22;19889;52.546;13.348;2023-06-22T05:36:00;23.60;99.90
16523;DHT22;19889;52.546;13.348;2023-06-22T05:38:27;23.70;99.90
16523;DHT22;19889;52.546;13.348;2023-06-22T05:40:55;23.70;99.90
16523;DHT22;19889;52.546;13.348;2023-06-22T05:43:23;23.70;99.90
16523;DHT22;19889;52.546;13.348;2023-06-22T05:45:50;23.70;99.90
16523;DHT22;19889;52.546;13.348;2023-06-22T05:48:17;23.70;99.90
16523;DHT22;19889;52.546;13.348;2023-06-22T05:50:44;23.70;99.90
16523;DHT22;19889;52.546;13.348;2023-06-22T05:53:11;23.80;99.90
16523;DHT22;19889;52.546;13.348;2023-06-22T05:55:38;23.80;99.90
16523;DHT22;19889;52.546;13.348;2023-06-22T05:58:06;23.80;99.90
16523;DHT22;19889;52.546;13.348;2023-06-22T06:00:35;23.80;99.90
16523;DHT22;19889;52.546;13.348;2023-06-22T06:03:02;23.80;99.90
16523;DHT22;19889;52.546;13.348;2023-06-22T06:05:29;23.80;99.90
16523;DHT22;19889;52.546;13.348;2023-06-22T06:07:57;23.80;99.90
16523;DHT22;19889;52.546;13.348;2023-06-22T06:10:24;23.80;99.90
16523;DHT22;19889;52.546;13.348;2023-06-22T06:12:52;23.80;99.90
16523;DHT22;19889;52.546;13.348;2023-06-22T06:15:19;23.80;99.90
16523;DHT22;19889;52.546;13.348;2023-06-22T06:17:47;23.80;99.90
16523;DHT22;19889;52.546;13.348;2023-06-22T06:20:15;23.80;99.90
16523;DHT22;19889;52.546;13.348;2023-06-22T06:22:42;23.80;99.90
16523;DHT22;19889;52.546;13.348;2023-06-22T06:25:09;23.90;99.90
16523;DHT22;19889;52.546;13.348;2023-06-22T06:27:42;23.90;99.90
16523;DHT22;19889;52.546;13.348;2023-06-22T06:30:10;24.20;99.90
16523;DHT22;19889;52.546;13.348;2023-06-22T06:32:37;23.90;99.90
16523;DHT22;19889;52.546;13.348;2023-06-22T06:35:07;23.90;99.90
16523;DHT22;19889;52.546;13.348;2023-06-22T06:37:36;23.90;99.90
16523;DHT22;19889;52.546;13.348;2023-06-22T06:40:04;23.90;99.90
16523;DHT22;19889;52.546;13.348;2023-06-22T06:42:33;23.90;99.90
16523;DHT22;19889;52.546;13.348;2023-06-22T06:45:00;24.00;99.90
16523;DHT22;19889;52.546;13.348;2023-06-22T06:47:27;24.00;99.90
16523;DHT22;19889;52.546;13.348;2023-06-22T06:49:54;24.10;99.90
16523;DHT22;19889;52.546;13.348;2023-06-22T06:52:23;24.00;99.90
16523;DHT22;19889;52.546;13.348;2023-06-22T06:54:50;24.00;99.90
16523;DHT22;19889;52.546;13.348;2023-06-22T06:57:17;24.00;99.90
16523;DHT22;19889;52.546;13.348;2023-06-22T06:59:45;24.00;99.90
16523;DHT22;19889;52.546;13.348;2023-06-22T07:02:12;24.00;99.90
16523;DHT22;19889;52.546;13.348;2023-06-22T07:04:40;24.10;99.90
16523;DHT22;19889;52.546;13.348;2023-06-22T07:07:07;24.10;99.90
16523;DHT22;19889;52.546;13.348;2023-06-22T07:09:36;24.10;99.90
16523;DHT22;19889;52.546;13.348;2023-06-22T07:12:03;24.20;99.90
16523;DHT22;19889;52.546;13.348;2023-06-22T07:14:30;24.20;99.90
16523;DHT22;19889;52.546;13.348;2023-06-22T07:16:58;24.20;99.90
16523;DHT22;19889;52.546;13.348;2023-06-22T07:19:25;24.30;99.90
16523;DHT22;19889;52.546;13.348;2023-06-22T07:21:52;24.30;99.90
16523;DHT22;19889;52.546;13.348;2023-06-22T07:24:19;24.40;99.90
16523;DHT22;19889;52.546;13.348;2023-06-22T07:26:49;24.40;99.90
16523;DHT22;19889;52.546;13.348;2023-06-22T07:29:17;24.50;99.90
16523;DHT22;19889;52.546;13.348;2023-06-22T07:31:44;24.50;99.90
16523;DHT22;19889;52.546;13.348;2023-06-22T07:34:11;24.50;99.90
16523;DHT22;19889;52.546;13.348;2023-06-22T07:36:38;24.50;99.90
16523;DHT22;19889;52.546;13.348;2023-06-22T07:39:05;24.60;99.90
16523;DHT22;19889;52.546;13.348;2023-06-22T07:41:32;24.60;99.90
16523;DHT22;19889;52.546;13.348;2023-06-22T07:44:02;24.60;99.90
16523;DHT22;19889;52.546;13.348;2023-06-22T07:46:29;24.60;99.90
16523;DHT22;19889;52.546;13.348;2023-06-22T07:48:56;24.60;99.90
16523;DHT22;19889;52.546;13.348;2023-06-22T07:51:24;24.70;99.90
16523;DHT22;19889;52.546;13.348;2023-06-22T07:53:51;24.70;99.90
16523;DHT22;19889;52.546;13.348;2023-06-22T07:56:18;24.70;99.90
16523;DHT22;19889;52.546;13.348;2023-06-22T07:58:46;24.80;99.90
16523;DHT22;19889;52.546;13.348;2023-06-22T08:01:15;24.80;99.90
16523;DHT22;19889;52.546;13.348;2023-06-22T08:03:42;24.80;99.90
16523;DHT22;19889;52.546;13.348;2023-06-22T08:06:09;24.80;99.90
16523;DHT22;19889;52.546;13.348;2023-06-22T08:08:37;24.90;99.90
16523;DHT22;19889;52.546;13.348;2023-06-22T08:11:03;25.90;99.90
16523;DHT22;19889;52.546;13.348;2023-06-22T08:13:31;24.90;99.90
16523;DHT22;19889;52.546;13.348;2023-06-22T08:15:58;24.90;99.90
16523;DHT22;19889;52.546;13.348;2023-06-22T08:18:28;25.00;99.90
16523;DHT22;19889;52.546;13.348;2023-06-22T08:20:55;25.00;99.90
16523;DHT22;19889;52.546;13.348;2023-06-22T08:23:22;25.00;99.90
16523;DHT22;19889;52.546;13.348;2023-06-22T08:25:49;25.10;99.90
16523;DHT22;19889;52.546;13.348;2023-06-22T08:28:16;25.00;99.90
16523;DHT22;19889;52.546;13.348;2023-06-22T08:30:43;25.00;99.90
16523;DHT22;19889;52.546;13.348;2023-06-22T08:33:10;25.00;99.90
16523;DHT22;19889;52.546;13.348;2023-06-22T08:35:39;25.10;99.90
16523;DHT22;19889;52.546;13.348;2023-06-22T08:38:06;25.00;99.90
16523;DHT22;19889;52.546;13.348;2023-06-22T08:40:34;25.00;99.90
16523;DHT22;19889;52.546;13.348;2023-06-22T08:43:01;25.10;99.90
16523;DHT22;19889;52.546;13.348;2023-06-22T08:45:28;25.00;99.90
16523;DHT22;19889;52.546;13.348;2023-06-22T08:47:55;25.10;99.90
16523;DHT22;19889;52.546;13.348;2023-06-22T08:50:22;25.10;99.90
16523;DHT22;19889;52.546;13.348;2023-06-22T08:52:50;25.10;99.90
16523;DHT22;19889;52.546;13.348;2023-06-22T08:55:17;25.10;99.90
16523;DHT22;19889;52.546;13.348;2023-06-22T08:57:44;25.10;99.90
16523;DHT22;19889;52.546;13.348;2023-06-22T09:00:12;25.20;99.90
16523;DHT22;19889;52.546;13.348;2023-06-22T09:02:43;25.20;99.90
16523;DHT22;19889;52.546;13.348;2023-06-22T09:05:10;25.20;99.90
16523;DHT22;19889;52.546;13.348;2023-06-22T09:07:37;25.20;99.90
16523;DHT22;19889;52.546;13.348;2023-06-22T09:10:06;25.20;99.90
16523;DHT22;19889;52.546;13.348;2023-06-22T09:12:33;25.20;99.90
16523;DHT22;19889;52.546;13.348;2023-06-22T09:15:04;25.20;99.90
16523;DHT22;19889;52.546;13.348;2023-06-22T09:17:33;25.20;99.90
16523;DHT22;19889;52.546;13.348;2023-06-22T09:20:01;25.30;99.90
16523;DHT22;19889;52.546;13.348;2023-06-22T09:22:31;25.30;99.90
16523;DHT22;19889;52.546;13.348;2023-06-22T09:24:58;25.30;99.70
16523;DHT22;19889;52.546;13.348;2023-06-22T09:27:28;25.30;99.50
16523;DHT22;19889;52.546;13.348;2023-06-22T09:29:54;25.30;99.50
16523;DHT22;19889;52.546;13.348;2023-06-22T09:32:24;25.40;99.60
16523;DHT22;19889;52.546;13.348;2023-06-22T09:34:51;25.40;99.50
16523;DHT22;19889;52.546;13.348;2023-06-22T09:37:18;25.40;99.50
16523;DHT22;19889;52.546;13.348;2023-06-22T09:39:45;25.40;99.40
16523;DHT22;19889;52.546;13.348;2023-06-22T09:42:13;25.40;99.40
16523;DHT22;19889;52.546;13.348;2023-06-22T09:44:42;25.40;99.40
16523;DHT22;19889;52.546;13.348;2023-06-22T09:47:09;25.40;99.20
16523;DHT22;19889;52.546;13.348;2023-06-22T09:49:36;25.40;99.10
16523;DHT22;19889;52.546;13.348;2023-06-22T09:52:03;25.40;99.20
16523;DHT22;19889;52.546;13.348;2023-06-22T09:54:30;25.40;99.10
16523;DHT22;19889;52.546;13.348;2023-06-22T09:56:57;25.40;98.90
16523;DHT22;19889;52.546;13.348;2023-06-22T09:59:24;25.50;98.90
16523;DHT22;19889;52.546;13.348;2023-06-22T10:01:52;25.50;98.80
16523;DHT22;19889;52.546;13.348;2023-06-22T10:04:19;25.50;98.50
16523;DHT22;19889;52.546;13.348;2023-06-22T10:06:46;25.50;98.50
16523;DHT22;19889;52.546;13.348;2023-06-22T10:09:13;25.60;98.30
16523;DHT22;19889;52.546;13.348;2023-06-22T10:11:40;25.60;98.20
16523;DHT22;19889;52.546;13.348;2023-06-22T10:14:07;25.60;98.20
16523;DHT22;19889;52.546;13.348;2023-06-22T10:16:36;25.60;98.30
16523;DHT22;19889;52.546;13.348;2023-06-22T10:19:05;25.70;98.30
16523;DHT22;19889;52.546;13.348;2023-06-22T10:21:32;25.70;98.20
16523;DHT22;19889;52.546;13.348;2023-06-22T10:24:00;25.70;98.00
16523;DHT22;19889;52.546;13.348;2023-06-22T10:26:31;25.70;98.00
16523;DHT22;19889;52.546;13.348;2023-06-22T10:28:58;25.70;98.00
16523;DHT22;19889;52.546;13.348;2023-06-22T10:31:25;25.80;98.00
16523;DHT22;19889;52.546;13.348;2023-06-22T10:33:53;25.80;98.00
16523;DHT22;19889;52.546;13.348;2023-06-22T10:36:22;25.80;98.00
16523;DHT22;19889;52.546;13.348;2023-06-22T10:38:49;25.80;97.80
16523;DHT22;19889;52.546;13.348;2023-06-22T10:41:18;25.80;97.70
16523;DHT22;19889;52.546;13.348;2023-06-22T10:43:45;25.80;97.60
16523;DHT22;19889;52.546;13.348;2023-06-22T10:46:12;25.80;97.60
16523;DHT22;19889;52.546;13.348;2023-06-22T10:48:39;25.90;97.60
16523;DHT22;19889;52.546;13.348;2023-06-22T10:51:06;25.80;97.60
16523;DHT22;19889;52.546;13.348;2023-06-22T10:53:34;25.90;97.60
16523;DHT22;19889;52.546;13.348;2023-06-22T10:56:01;25.90;97.60
16523;DHT22;19889;52.546;13.348;2023-06-22T10:58:28;25.90;97.50
16523;DHT22;19889;52.546;13.348;2023-06-22T11:00:56;26.00;97.50
16523;DHT22;19889;52.546;13.348;2023-06-22T11:03:22;27.60;98.10
16523;DHT22;19889;52.546;13.348;2023-06-22T11:05:49;25.90;97.40
16523;DHT22;19889;52.546;13.348;2023-06-22T11:08:16;25.90;97.50
16523;DHT22;19889;52.546;13.348;2023-06-22T11:10:45;26.00;97.50
16523;DHT22;19889;52.546;13.348;2023-06-22T11:13:12;25.90;97.30
16523;DHT22;19889;52.546;13.348;2023-06-22T11:15:39;26.00;97.40
16523;DHT22;19889;52.546;13.348;2023-06-22T11:18:06;26.00;97.30
16523;DHT22;19889;52.546;13.348;2023-06-22T11:20:34;26.00;97.30
16523;DHT22;19889;52.546;13.348;2023-06-22T11:23:04;26.00;97.40
16523;DHT22;19889;52.546;13.348;2023-06-22T11:25:32;26.10;97.20
16523;DHT22;19889;52.546;13.348;2023-06-22T11:28:02;26.10;97.20
16523;DHT22;19889;52.546;13.348;2023-06-22T11:30:29;26.10;97.10
16523;DHT22;19889;52.546;13.348;2023-06-22T11:32:56;26.10;96.90
16523;DHT22;19889;52.546;13.348;2023-06-22T11:35:24;26.10;96.90
16523;DHT22;19889;52.546;13.348;2023-06-22T11:37:51;26.10;96.90
16523;DHT22;19889;52.546;13.348;2023-06-22T11:40:18;26.10;96.60
16523;DHT22;19889;52.546;13.348;2023-06-22T11:42:45;26.10;96.70
16523;DHT22;19889;52.546;13.348;2023-06-22T11:45:13;26.20;96.70
16523;DHT22;19889;52.546;13.348;2023-06-22T11:47:40;26.20;96.60
16523;DHT22;19889;52.546;13.348;2023-06-22T11:50:08;26.20;96.60
16523;DHT22;19889;52.546;13.348;2023-06-22T11:52:35;26.20;96.50
16523;DHT22;19889;52.546;13.348;2023-06-22T11:55:03;26.20;96.50
16523;DHT22;19889;52.546;13.348;2023-06-22T11:57:33;26.20;96.50
16523;DHT22;19889;52.546;13.348;2023-06-22T12:00:00;26.30;96.50
16523;DHT22;19889;52.546;13.348;2023-06-22T12:02:33;26.30;96.40
16523;DHT22;19889;52.546;13.348;2023-06-22T12:05:00;26.30;96.30
16523;DHT22;19889;52.546;13.348;2023-06-22T12:07:30;26.30;96.30
16523;DHT22;19889;52.546;13.348;2023-06-22T12:09:57;26.30;96.10
16523;DHT22;19889;52.546;13.348;2023-06-22T12:12:24;26.40;96.00
16523;DHT22;19889;52.546;13.348;2023-06-22T12:14:51;26.40;96.00
16523;DHT22;19889;52.546;13.348;2023-06-22T12:17:18;26.40;96.10
16523;DHT22;19889;52.546;13.348;2023-06-22T12:19:46;26.40;96.10
16523;DHT22;19889;52.546;13.348;2023-06-22T12:22:13;26.50;96.10
16523;DHT22;19889;52.546;13.348;2023-06-22T12:24:40;24.00;95.10
16523;DHT22;19889;52.546;13.348;2023-06-22T12:27:07;26.50;95.80
16523;DHT22;19889;52.546;13.348;2023-06-22T12:29:35;26.50;95.70
16523;DHT22;19889;52.546;13.348;2023-06-22T12:32:03;26.50;95.50
16523;DHT22;19889;52.546;13.348;2023-06-22T12:34:30;26.50;95.50
16523;DHT22;19889;52.546;13.348;2023-06-22T12:36:59;26.50;95.50
16523;DHT22;19889;52.546;13.348;2023-06-22T12:39:26;26.50;95.40
16523;DHT22;19889;52.546;13.348;2023-06-22T12:41:52;26.60;95.40
16523;DHT22;19889;52.546;13.348;2023-06-22T12:44:19;26.60;95.20
16523;DHT22;19889;52.546;13.348;2023-06-22T12:46:47;26.60;95.20
16523;DHT22;19889;52.546;13.348;2023-06-22T12:49:14;26.60;95.10
16523;DHT22;19889;52.546;13.348;2023-06-22T12:51:41;26.60;95.10
16523;DHT22;19889;52.546;13.348;2023-06-22T12:54:11;26.70;95.00
16523;DHT22;19889;52.546;13.348;2023-06-22T12:56:38;26.70;95.00
16523;DHT22;19889;52.546;13.348;2023-06-22T12:59:05;26.70;94.90
16523;DHT22;19889;52.546;13.348;2023-06-22T13:01:32;24.60;94.10
16523;DHT22;19889;52.546;13.348;2023-06-22T13:03:59;26.70;94.80
16523;DHT22;19889;52.546;13.348;2023-06-22T13:06:26;26.70;94.90
16523;DHT22;19889;52.546;13.348;2023-06-22T13:08:53;26.70;94.90
16523;DHT22;19889;52.546;13.348;2023-06-22T13:11:21;26.80;95.30
16523;DHT22;19889;52.546;13.348;2023-06-22T13:13:48;26.80;94.90
16523;DHT22;19889;52.546;13.348;2023-06-22T13:16:15;26.80;94.90
16523;DHT22;19889;52.546;13.348;2023-06-22T13:18:42;26.90;94.90
16523;DHT22;19889;52.546;13.348;2023-06-22T13:21:09;26.90;94.90
16523;DHT22;19889;52.546;13.348;2023-06-22T13:23:36;26.90;94.60
16523;DHT22;19889;52.546;13.348;2023-06-22T13:26:03;26.90;94.50
16523;DHT22;19889;52.546;13.348;2023-06-22T13:28:32;28.00;94.90
16523;DHT22;19889;52.546;13.348;2023-06-22T13:30:59;26.90;94.50
16523;DHT22;19889;52.546;13.348;2023-06-22T13:33:26;26.90;94.40
16523;DHT22;19889;52.546;13.348;2023-06-22T13:35:53;26.90;94.30
16523;DHT22;19889;52.546;13.348;2023-06-22T13:38:20;26.90;94.40
16523;DHT22;19889;52.546;13.348;2023-06-22T13:40:48;27.00;94.40
16523;DHT22;19889;52.546;13.348;2023-06-22T13:43:15;27.00;94.30
16523;DHT22;19889;52.546;13.348;2023-06-22T13:45:44;27.00;94.30
16523;DHT22;19889;52.546;13.348;2023-06-22T13:48:11;27.00;94.60
16523;DHT22;19889;52.546;13.348;2023-06-22T13:50:38;27.00;94.20
16523;DHT22;19889;52.546;13.348;2023-06-22T13:53:05;27.00;94.10
16523;DHT22;19889;52.546;13.348;2023-06-22T13:55:32;27.10;94.20
16523;DHT22;19889;52.546;13.348;2023-06-22T13:57:59;27.10;94.10
16523;DHT22;19889;52.546;13.348;2023-06-22T14:00:26;27.10;94.10
16523;DHT22;19889;52.546;13.348;2023-06-22T14:02:55;27.10;94.10
16523;DHT22;19889;52.546;13.348;2023-06-22T14:05:22;27.10;94.10
16523;DHT22;19889;52.546;13.348;2023-06-22T14:07:49;27.10;94.10
16523;DHT22;19889;52.546;13.348;2023-06-22T14:10:16;27.20;94.00
16523;DHT22;19889;52.546;13.348;2023-06-22T14:12:43;27.20;94.00
16523;DHT22;19889;52.546;13.348;2023-06-22T14:15:10;27.20;94.10
16523;DHT22;19889;52.546;13.348;2023-06-22T14:17:37;27.20;94.10
16523;DHT22;19889;52.546;13.348;2023-06-22T14:20:07;27.20;94.10
16523;DHT22;19889;52.546;13.348;2023-06-22T14:22:34;27.20;94.10
16523;DHT22;19889;52.546;13.348;2023-06-22T14:25:02;27.20;94.00
16523;DHT22;19889;52.546;13.348;2023-06-22T14:27:29;27.30;94.00
16523;DHT22;19889;52.546;13.348;2023-06-22T14:29:56;27.30;94.00
16523;DHT22;19889;52.546;13.348;2023-06-22T14:32:23;27.30;94.00
16523;DHT22;19889;52.546;13.348;2023-06-22T14:34:51;27.30;94.00
16523;DHT22;19889;52.546;13.348;2023-06-22T14:37:19;27.30;93.80
16523;DHT22;19889;52.546;13.348;2023-06-22T14:39:46;27.40;93.80
16523;DHT22;19889;52.546;13.348;2023-06-22T14:42:13;27.40;93.70
16523;DHT22;19889;52.546;13.348;2023-06-22T14:44:40;27.40;93.70
16523;DHT22;19889;52.546;13.348;2023-06-22T14:47:07;27.40;93.60
16523;DHT22;19889;52.546;13.348;2023-06-22T14:49:34;27.40;93.50
16523;DHT22;19889;52.546;13.348;2023-06-22T14:52:02;27.40;93.60
16523;DHT22;19889;52.546;13.348;2023-06-22T14:54:30;27.40;93.60
16523;DHT22;19889;52.546;13.348;2023-06-22T14:56:57;27.40;93.50
16523;DHT22;19889;52.546;13.348;2023-06-22T14:59:24;27.40;93.50
16523;DHT22;19889;52.546;13.348;2023-06-22T15:01:51;27.40;93.50
16523;DHT22;19889;52.546;13.348;2023-06-22T15:04:18;27.40;93.40
16523;DHT22;19889;52.546;13.348;2023-06-22T15:06:45;27.50;93.40
16523;DHT22;19889;52.546;13.348;2023-06-22T15:09:12;27.50;93.50
16523;DHT22;19889;52.546;13.348;2023-06-22T15:11:40;27.50;93.40
16523;DHT22;19889;52.546;13.348;2023-06-22T15:14:07;27.50;93.40
16523;DHT22;19889;52.546;13.348;2023-06-22T15:16:34;27.50;93.40
16523;DHT22;19889;52.546;13.348;2023-06-22T15:19:01;27.50;93.40